Time;durP1;ratioP1;P1;durP2;ratioP2;P2;SDS_P1;SDS_P2;PMS_P1;PMS_P2;Temp;Humidity;BMP_temperature;BMP_pressure;BME280_temperature;BME280_humidity;BME280_pressure;Samples;Min_cycle;Max_cycle;Signal;HPM_P1;HPM_P2
2022/11/11 00:00:03;;;;;;;109.23;74.70;;;;;;;14.87;83.69;102846.44;4868351;29;20135;-81
2022/11/11 00:02:35;;;;;;;107.88;68.72;;;;;;;14.72;84.49;102827.84;4868223;29;20059;-81
2022/11/11 00:05:15;;;;;;;94.18;65.57;;;;;;;14.86;85.24;102858.13;4878958;29;20639;-81
2022/11/11 00:07:43;;;;;;;105.35;69.68;;;;;;;14.82;84.20;102845.94;4866009;29;20284;-82
2022/11/11 00:10:13;;;;;;;110.32;73.45;;;;;;;14.75;84.58;102835.66;4873048;29;20090;-81
2022/11/11 00:12:40;;;;;;;105.75;70.45;;;;;;;14.84;84.50;102854.69;4870440;29;20107;-84
2022/11/11 00:15:07;;;;;;;102.90;70.80;;;;;;;14.25;85.03;102751.03;4869663;29;20571;-83
2022/11/11 00:26:19;;;;;;;101.82;68.28;;;;;;;14.83;84.30;102852.97;4878903;29;20292;-83
2022/11/11 00:29:05;;;;;;;102.45;66.20;;;;;;;14.68;84.41;102834.38;4882344;29;20224;-82
2022/11/11 00:31:34;;;;;;;94.18;64.75;;;;;;;14.69;84.28;102845.94;4884340;29;20326;-83
2022/11/11 00:34:10;;;;;;;103.55;68.55;;;;;;;14.87;84.26;102871.38;4886584;29;20464;-82
2022/11/11 00:36:39;;;;;;;101.95;64.03;;;;;;;14.86;83.92;102882.19;4891552;29;20102;-82
2022/11/11 00:39:12;;;;;;;102.88;67.95;;;;;;;15.03;83.79;102883.66;4887624;29;20099;-83
2022/11/11 00:41:39;;;;;;;96.30;66.53;;;;;;;14.68;83.93;102831.72;4894416;29;20305;-80
2022/11/11 00:44:09;;;;;;;96.00;66.70;;;;;;;14.52;84.13;102812.38;4886741;29;20065;-83
2022/11/11 00:52:12;;;;;;;89.05;62.47;;;;;;;14.84;84.10;102858.22;4893722;29;20156;-84
2022/11/11 00:54:38;;;;;;;98.05;64.90;;;;;;;14.85;83.92;102875.97;4886213;29;20384;-83
2022/11/11 00:57:05;;;;;;;102.82;66.88;;;;;;;14.93;84.00;102875.44;4891032;29;20056;-82
2022/11/11 00:59:32;;;;;;;95.85;66.32;;;;;;;14.90;84.39;102875.63;4890689;29;20535;-81
2022/11/11 01:01:58;;;;;;;95.05;64.70;;;;;;;14.65;84.17;102831.94;4907194;29;20067;-81
2022/11/11 01:04:28;;;;;;;101.55;67.97;;;;;;;14.51;83.63;102799.94;4891341;29;20304;-83
2022/11/11 01:06:55;;;;;;;97.80;66.00;;;;;;;14.86;84.94;102875.03;4885038;29;20055;-84
2022/11/11 01:09:21;;;;;;;95.13;64.53;;;;;;;15.05;83.59;102871.00;4907267;28;20054;-80
2022/11/11 01:11:48;;;;;;;97.30;67.47;;;;;;;15.02;83.69;102880.09;4887559;29;20047;-83
2022/11/11 01:14:15;;;;;;;106.55;69.63;;;;;;;15.03;82.90;102860.44;4901732;29;20154;-81
2022/11/11 01:16:43;;;;;;;103.15;68.75;;;;;;;14.68;83.66;102818.34;4919444;28;20055;-81
2022/11/11 01:19:19;;;;;;;101.20;68.97;;;;;;;14.94;83.51;102855.75;4906043;28;20055;-80
2022/11/11 01:21:56;;;;;;;105.68;71.32;;;;;;;14.75;84.13;102843.69;4905053;29;20588;-82
2022/11/11 01:24:30;;;;;;;106.00;70.63;;;;;;;14.58;84.26;102814.63;4929609;28;20593;-83
2022/11/11 01:27:00;;;;;;;102.68;69.95;;;;;;;14.90;83.92;102867.63;4914597;29;20157;-81
2022/11/11 01:29:30;;;;;;;104.38;69.65;;;;;;;14.66;83.82;102820.28;4910501;29;20186;-82
2022/11/11 01:31:57;;;;;;;106.28;73.53;;;;;;;14.92;83.19;102831.78;4910513;28;20055;-82
2022/11/11 01:34:26;;;;;;;109.53;74.95;;;;;;;15.00;83.48;102858.00;4908296;28;20050;-83
2022/11/11 01:36:53;;;;;;;113.95;71.72;;;;;;;15.02;83.22;102848.00;4910135;29;20223;-84
2022/11/11 01:39:19;;;;;;;114.30;73.57;;;;;;;14.56;83.43;102797.81;4909957;28;20130;-83
2022/11/11 01:41:49;;;;;;;115.05;75.32;;;;;;;14.59;83.86;102800.31;4910667;28;20062;-83
2022/11/11 01:44:48;;;;;;;115.60;74.38;;;;;;;14.75;83.83;102838.34;4909421;28;20174;-83
2022/11/11 01:47:21;;;;;;;107.38;73.13;;;;;;;14.83;83.75;102836.94;4910851;28;20158;-83
2022/11/11 01:50:00;;;;;;;104.87;70.27;;;;;;;14.97;83.58;102860.88;4897044;28;20074;-83
2022/11/11 01:52:39;;;;;;;117.22;73.07;;;;;;;14.64;83.08;102797.31;4886335;29;20399;-84
2022/11/11 01:55:15;;;;;;;114.50;74.65;;;;;;;15.04;82.98;102877.34;4903889;29;20127;-83
2022/11/11 01:57:56;;;;;;;113.05;74.82;;;;;;;15.01;83.36;102873.06;4909099;29;20386;-83
2022/11/11 02:00:26;;;;;;;107.68;71.82;;;;;;;15.03;82.67;102867.63;4889576;28;20449;-83
2022/11/11 02:03:05;;;;;;;116.53;73.57;;;;;;;14.83;82.84;102836.94;4866118;29;20426;-83
2022/11/11 02:05:42;;;;;;;117.97;78.43;;;;;;;14.87;83.23;102854.47;4873799;29;20165;-84
2022/11/11 02:08:30;;;;;;;115.82;73.63;;;;;;;14.91;83.10;102864.00;4860119;29;20055;-83
2022/11/11 02:16:53;;;;;;;122.50;80.47;;;;;;;14.86;83.92;102866.16;4865218;29;20340;-81
2022/11/11 02:19:40;;;;;;;118.68;79.45;;;;;;;13.48;84.03;102638.91;4878381;28;20301;-82
2022/11/11 02:22:29;;;;;;;115.72;77.82;;;;;;;14.83;84.69;102882.38;4876197;29;20442;-83
2022/11/11 02:25:02;;;;;;;117.13;76.03;;;;;;;14.93;84.35;102880.78;4872832;28;20048;-81
2022/11/11 02:27:30;;;;;;;124.50;79.53;;;;;;;14.92;84.17;102897.78;4878581;28;20043;-83
2022/11/11 02:30:00;;;;;;;116.32;78.88;;;;;;;14.82;84.21;102881.53;4868842;28;20376;-83
2022/11/11 02:32:27;;;;;;;112.72;74.68;;;;;;;14.55;83.83;102833.56;4878439;28;20847;-83
2022/11/11 02:34:53;;;;;;;124.97;80.20;;;;;;;14.96;83.92;102902.81;4880575;28;20289;-84
2022/11/11 02:37:23;;;;;;;119.60;79.88;;;;;;;14.89;84.51;102906.03;4862084;29;20055;-83
2022/11/11 02:40:00;;;;;;;123.50;80.78;;;;;;;14.48;85.01;102849.13;4861177;29;20178;-82
2022/11/11 02:42:38;;;;;;;117.87;75.87;;;;;;;14.80;85.03;102895.97;4855453;29;20071;-83
2022/11/11 02:45:14;;;;;;;117.55;75.53;;;;;;;14.69;84.76;102862.84;4851362;29;20787;-82
2022/11/11 02:47:44;;;;;;;115.88;73.75;;;;;;;14.86;84.52;102900.91;4865349;29;20477;-82
2022/11/11 02:50:15;;;;;;;122.40;78.97;;;;;;;14.91;84.24;102896.09;4847279;29;20545;-83
2022/11/11 02:52:48;;;;;;;119.53;77.05;;;;;;;14.89;84.35;102900.69;4846824;29;20052;-81
2022/11/11 02:55:27;;;;;;;117.00;76.63;;;;;;;14.59;85.39;102852.88;4845327;29;20672;-82
2022/11/11 02:57:55;;;;;;;120.28;77.43;;;;;;;14.58;85.08;102844.03;4850908;29;21013;-82
2022/11/11 03:00:27;;;;;;;118.65;77.88;;;;;;;14.89;84.44;102884.63;4847761;29;20474;-80
2022/11/11 03:03:10;;;;;;;107.63;71.20;;;;;;;14.71;84.61;102860.91;4850728;29;20524;-81
2022/11/11 03:05:44;;;;;;;113.03;75.78;;;;;;;14.48;84.85;102821.56;4834306;29;20051;-81
2022/11/11 03:08:22;;;;;;;112.07;71.13;;;;;;;14.89;84.54;102873.94;4832214;29;20487;-81
2022/11/11 03:11:00;;;;;;;117.47;75.07;;;;;;;14.91;84.59;102896.09;4838098;28;20065;-81
2022/11/11 03:13:33;;;;;;;110.22;72.65;;;;;;;14.75;84.81;102873.09;4833865;29;20154;-82
2022/11/11 03:16:05;;;;;;;;;;;;;;;14.83;85.02;102890.41;4849534;29;20440;-81
2022/11/11 03:18:42;;;;;;;112.03;74.65;;;;;;;14.61;85.35;102857.19;4852039;28;20292;-81
2022/11/11 03:21:09;;;;;;;111.45;73.60;;;;;;;14.71;84.55;102871.63;4835383;29;20174;-81
2022/11/11 03:23:55;;;;;;;107.93;72.90;;;;;;;14.79;85.10;102891.59;4843793;28;20066;-82
2022/11/11 03:26:27;;;;;;;106.95;72.45;;;;;;;14.84;85.04;102897.50;4854322;29;20047;-82
2022/11/11 03:29:03;;;;;;;109.25;72.85;;;;;;;14.78;84.55;102876.50;4855418;29;20518;-80
2022/11/11 03:31:33;;;;;;;108.95;70.18;;;;;;;14.82;84.79;102894.06;4855821;28;20066;-79
2022/11/11 03:34:16;;;;;;;113.07;73.22;;;;;;;14.77;85.04;102891.72;4869815;28;20492;-81
2022/11/11 03:39:36;;;;;;;110.47;69.38;;;;;;;14.82;85.37;102908.28;4851503;29;20051;-81
2022/11/11 03:42:07;;;;;;;103.97;72.15;;;;;;;14.64;84.96;102867.66;4830960;29;20527;-82
2022/11/11 03:45:02;;;;;;;108.78;72.75;;;;;;;14.87;84.93;102899.94;4835587;29;20088;-82
2022/11/11 03:47:37;;;;;;;103.10;70.47;;;;;;;14.87;84.88;102898.09;4822230;29;20118;-81
2022/11/11 03:50:08;;;;;;;109.93;73.20;;;;;;;14.72;84.69;102862.63;4854637;29;20063;-82
2022/11/11 03:52:44;;;;;;;106.35;71.88;;;;;;;14.81;85.12;102881.66;4851554;29;20510;-82
2022/11/11 03:55:18;;;;;;;105.55;70.25;;;;;;;14.72;85.36;102873.31;4850844;28;20449;-81
2022/11/11 03:57:46;;;;;;;103.18;70.32;;;;;;;14.18;85.37;102792.50;4847543;29;20171;-81
2022/11/11 04:00:22;;;;;;;105.75;69.13;;;;;;;14.67;84.75;102856.75;4839803;29;20426;-82
2022/11/11 04:10:21;;;;;;;;;;;;;;;14.84;85.25;102894.81;4851144;29;20070;-82
2022/11/11 04:11:47;;;;;;;105.55;71.22;;;;;;;14.95;84.48;102906.47;4835148;29;20307;-81
2022/11/11 04:17:23;;;;;;;111.88;75.80;;;;;;;14.55;83.98;102848.75;4838550;29;20843;-80
2022/11/11 04:22:52;;;;;;;112.72;72.63;;;;;;;14.92;83.97;102903.97;4827206;29;20690;-80
2022/11/11 04:31:05;;;;;;;119.95;73.40;;;;;;;14.97;83.15;102898.31;4824767;29;20062;-80
2022/11/11 04:33:35;;;;;;;123.43;74.05;;;;;;;14.99;83.34;102916.94;4831102;29;20539;-79
2022/11/11 04:36:13;;;;;;;114.80;75.40;;;;;;;14.60;83.59;102860.81;4837125;29;20048;-81
2022/11/11 04:41:38;;;;;;;114.85;75.72;;;;;;;14.94;83.87;102914.59;4826223;29;20667;-81
2022/11/11 04:47:17;;;;;;;118.68;75.85;;;;;;;14.59;84.53;102885.84;4844492;29;20062;-79
2022/11/11 04:49:51;;;;;;;115.63;79.43;;;;;;;14.66;84.16;102888.91;4835772;29;20061;-81
2022/11/11 04:52:29;;;;;;;118.47;75.10;;;;;;;14.57;84.12;102869.06;4833893;29;20771;-83
2022/11/11 04:58:11;;;;;;;119.30;76.85;;;;;;;14.71;83.62;102902.84;4838178;29;20242;-81
2022/11/11 05:00:50;;;;;;;113.50;75.10;;;;;;;14.85;83.76;102931.28;4838605;29;20339;-80
2022/11/11 05:03:24;;;;;;;125.45;80.72;;;;;;;14.77;83.74;102917.59;4856009;29;20399;-81
2022/11/11 05:09:03;;;;;;;116.90;72.70;;;;;;;14.72;83.50;102897.38;4852340;29;20297;-81
2022/11/11 05:11:45;;;;;;;122.07;77.55;;;;;;;14.93;84.18;102931.59;4856429;29;20497;-80
2022/11/11 05:21:19;;;;;;;123.75;78.07;;;;;;;14.94;82.89;102925.28;4841520;29;20151;-82
2022/11/11 05:26:36;;;;;;;125.80;81.60;;;;;;;14.78;84.06;102925.50;4856702;29;20162;-80
2022/11/11 05:29:03;;;;;;;123.55;79.15;;;;;;;14.66;84.04;102913.88;4859106;29;20558;-81
2022/11/11 05:31:42;;;;;;;126.57;81.38;;;;;;;14.72;83.87;102918.75;4853998;29;20048;-80
2022/11/11 05:34:28;;;;;;;123.97;81.65;;;;;;;14.59;84.20;102915.25;4846171;29;20580;-78
2022/11/11 05:37:16;;;;;;;125.72;82.68;;;;;;;14.74;84.22;102929.38;4850262;29;20206;-83
2022/11/11 05:39:57;;;;;;;120.55;80.60;;;;;;;14.72;84.27;102945.50;4825276;29;20410;-82
2022/11/11 05:42:29;;;;;;;128.93;83.68;;;;;;;14.43;84.69;102906.53;4839899;29;20066;-81
2022/11/11 05:45:06;;;;;;;136.07;87.35;;;;;;;13.81;84.87;102806.56;4827980;29;20700;-81
2022/11/11 05:47:43;;;;;;;120.78;82.40;;;;;;;14.16;85.34;102878.06;4826939;29;20287;-80
2022/11/11 05:50:16;;;;;;;125.88;83.10;;;;;;;14.32;85.16;102893.91;4833681;29;20179;-80
2022/11/11 05:52:55;;;;;;;127.85;86.68;;;;;;;14.44;84.82;102932.28;4826684;29;20520;-83
2022/11/11 05:55:29;;;;;;;137.73;91.07;;;;;;;14.47;85.25;102954.34;4828633;29;20051;-81
2022/11/11 05:58:07;;;;;;;135.10;88.28;;;;;;;14.57;85.64;102975.97;4839579;29;20067;-81
2022/11/11 06:00:39;;;;;;;130.82;86.60;;;;;;;14.04;85.54;102886.91;4833844;29;20307;-81
2022/11/11 06:03:08;;;;;;;133.02;87.07;;;;;;;14.44;85.63;102951.00;4840257;29;20597;-80
2022/11/11 06:05:40;;;;;;;135.05;89.97;;;;;;;14.39;86.08;102950.44;4835569;29;20052;-81
2022/11/11 06:08:26;;;;;;;139.07;87.57;;;;;;;14.47;85.57;102961.50;4858278;28;20509;-80
2022/11/11 06:11:00;;;;;;;132.15;86.97;;;;;;;14.42;85.32;102934.22;4882830;29;20412;-80
2022/11/11 06:13:27;;;;;;;136.57;88.35;;;;;;;14.02;85.45;102879.00;4900027;29;20051;-80
2022/11/11 06:15:56;;;;;;;126.20;85.13;;;;;;;14.02;85.33;102878.16;4907377;28;20520;-81
2022/11/11 06:18:23;;;;;;;138.98;92.57;;;;;;;14.41;85.66;102954.72;4892371;28;20558;-81
2022/11/11 06:21:05;;;;;;;133.20;88.93;;;;;;;14.05;85.53;102900.19;4875071;29;20557;-80
2022/11/11 06:23:36;;;;;;;136.07;92.00;;;;;;;14.49;85.26;102973.78;4883793;29;20497;-79
2022/11/11 06:26:15;;;;;;;140.18;93.13;;;;;;;14.51;85.13;102979.00;4878514;29;20283;-81
2022/11/11 06:28:50;;;;;;;141.80;90.72;;;;;;;14.46;85.42;102986.50;4881003;29;20595;-80
2022/11/11 06:31:37;;;;;;;134.18;89.03;;;;;;;14.47;85.37;102974.88;4880533;29;20098;-81
2022/11/11 06:34:04;;;;;;;136.52;90.10;;;;;;;14.47;85.51;102988.22;4879700;29;20159;-81
2022/11/11 06:36:30;;;;;;;142.57;88.03;;;;;;;14.20;85.56;102946.38;4891332;28;20632;-81
2022/11/11 06:38:57;;;;;;;138.02;91.78;;;;;;;13.80;85.60;102879.59;4885576;29;20634;-82
2022/11/11 06:41:24;;;;;;;133.45;87.30;;;;;;;14.05;85.72;102931.34;4888089;28;20498;-80
2022/11/11 06:43:54;;;;;;;146.75;89.32;;;;;;;14.46;85.25;102978.47;4890534;28;20051;-82
2022/11/11 06:46:24;;;;;;;141.95;89.47;;;;;;;14.19;85.18;102930.44;4885390;28;20553;-82
2022/11/11 06:48:51;;;;;;;142.02;93.53;;;;;;;14.28;84.95;102964.56;4886953;28;20058;-81
2022/11/11 06:51:18;;;;;;;144.75;93.30;;;;;;;14.52;84.77;102999.47;4865643;29;20570;-81
2022/11/11 06:53:46;;;;;;;149.40;92.53;;;;;;;14.44;84.30;102975.03;4855250;29;20206;-81
2022/11/11 06:56:18;;;;;;;144.18;92.95;;;;;;;14.51;85.01;103013.75;4869541;29;20529;-82
2022/11/11 06:58:49;;;;;;;146.45;93.32;;;;;;;14.42;83.99;102993.88;4886562;29;20059;-81
2022/11/11 07:01:16;;;;;;;150.43;92.88;;;;;;;14.49;84.63;103021.03;4889278;29;20502;-81
2022/11/11 07:03:46;;;;;;;137.80;90.97;;;;;;;14.37;84.65;102993.34;4870181;29;20472;-82
2022/11/11 07:06:17;;;;;;;144.55;91.10;;;;;;;14.55;84.76;103009.97;4859985;29;20162;-80
2022/11/11 07:08:44;;;;;;;140.20;90.70;;;;;;;14.36;84.83;102993.44;4883324;29;20181;-81
2022/11/11 07:11:17;;;;;;;138.50;91.32;;;;;;;14.55;84.32;103023.31;4877342;28;20370;-84
2022/11/11 07:13:54;;;;;;;149.70;95.10;;;;;;;14.47;84.36;103010.47;4884687;28;20076;-82
2022/11/11 07:16:22;;;;;;;141.23;90.28;;;;;;;14.40;84.25;102997.63;4889428;28;20051;-82
2022/11/11 07:18:54;;;;;;;147.50;92.13;;;;;;;14.39;84.10;103003.91;4894355;28;20051;-81
2022/11/11 07:21:20;;;;;;;;;;;;;;;14.54;84.03;103029.66;4897648;28;20515;-82
2022/11/11 07:23:47;;;;;;;149.43;93.75;;;;;;;14.41;84.37;103026.03;4876031;29;19927;-82
2022/11/11 07:26:16;;;;;;;141.32;89.60;;;;;;;13.80;84.31;102910.78;4897162;28;20062;-82
2022/11/11 07:28:52;;;;;;;144.30;89.65;;;;;;;14.48;84.53;103038.03;4893652;28;20368;-82
2022/11/11 07:31:18;;;;;;;148.98;91.90;;;;;;;14.36;84.61;103026.34;4894452;29;20087;-81
2022/11/11 07:33:58;;;;;;;144.13;89.78;;;;;;;14.48;84.33;103028.19;4878643;29;20569;-80
2022/11/11 07:36:25;;;;;;;148.95;93.15;;;;;;;14.55;83.92;103027.81;4884300;28;20615;-81
2022/11/11 07:38:55;;;;;;;144.90;93.13;;;;;;;14.26;83.94;102994.03;4894224;29;20142;-81
2022/11/11 07:41:34;;;;;;;145.35;90.88;;;;;;;14.49;83.94;103026.38;4883394;29;20044;-80
2022/11/11 07:44:07;;;;;;;150.60;92.97;;;;;;;14.55;83.98;103031.34;4881705;28;20420;-82
2022/11/11 07:46:43;;;;;;;;;;;;;;;14.72;83.17;103054.28;4870851;29;20392;-81
2022/11/11 07:49:21;;;;;;;143.23;92.03;;;;;;;14.65;83.21;103037.78;4893842;28;20245;-81
2022/11/11 07:51:47;;;;;;;142.10;89.03;;;;;;;14.32;83.35;102992.75;4878717;29;20060;-79
2022/11/11 07:54:14;;;;;;;147.35;94.43;;;;;;;14.58;83.04;103017.78;4885423;29;20588;-81
2022/11/11 07:56:41;;;;;;;144.77;95.95;;;;;;;14.42;83.27;103004.56;4915723;28;20316;-81
2022/11/11 07:59:10;;;;;;;150.07;91.93;;;;;;;14.40;83.56;103002.97;4920581;28;20065;-81
2022/11/11 08:01:37;;;;;;;144.02;89.95;;;;;;;14.35;83.37;103008.59;4916438;29;20051;-81
2022/11/11 08:04:04;;;;;;;150.27;93.75;;;;;;;14.45;83.44;103008.84;4917089;28;20085;-81
2022/11/11 08:06:31;;;;;;;150.73;91.43;;;;;;;14.70;82.97;103041.00;4906688;28;20337;-82
2022/11/11 08:08:58;;;;;;;141.80;89.07;;;;;;;14.66;82.54;103042.19;4892762;29;20520;-81
2022/11/11 08:14:16;;;;;;;154.75;96.45;;;;;;;14.81;82.38;103047.47;4900396;29;20059;-82
2022/11/11 08:16:51;;;;;;;145.35;89.18;;;;;;;14.64;82.69;103014.69;4900263;29;20047;-82
2022/11/11 08:19:19;;;;;;;145.73;92.68;;;;;;;14.79;81.58;103022.63;4901308;29;20174;-82
2022/11/11 08:21:47;;;;;;;147.20;92.70;;;;;;;14.94;82.22;103048.31;4900460;29;20123;-81
2022/11/11 08:24:15;;;;;;;144.63;93.40;;;;;;;14.78;82.85;103020.91;4894120;29;20225;-82
2022/11/11 08:27:02;;;;;;;144.45;90.88;;;;;;;14.74;83.20;103030.97;4895851;28;20056;-80
2022/11/11 08:29:28;;;;;;;141.05;90.43;;;;;;;15.02;82.39;103067.34;4891868;29;20417;-81
2022/11/11 08:31:57;;;;;;;151.80;93.57;;;;;;;15.08;82.32;103074.97;4894918;29;20573;-85
2022/11/11 08:34:27;;;;;;;141.63;88.10;;;;;;;14.92;82.64;103050.22;4882473;29;20048;-81
2022/11/11 08:36:56;;;;;;;143.35;90.32;;;;;;;15.01;81.45;103032.72;4885701;29;20055;-79
2022/11/11 08:39:23;;;;;;;144.07;88.13;;;;;;;15.31;80.63;103077.88;4895860;29;20743;-81
2022/11/11 08:41:50;;;;;;;141.25;88.07;;;;;;;15.30;81.08;103077.00;4892981;29;20056;-81
2022/11/11 08:44:16;;;;;;;141.32;88.18;;;;;;;14.98;81.37;103017.72;4894261;29;20484;-79
2022/11/11 08:46:43;;;;;;;133.65;84.43;;;;;;;15.34;81.12;103056.22;4891260;29;20584;-82
2022/11/11 08:49:11;;;;;;;146.95;92.93;;;;;;;15.32;80.85;103072.41;4886155;29;20229;-83
2022/11/11 08:51:41;;;;;;;147.40;92.57;;;;;;;15.11;80.99;103018.56;4888359;29;20096;-81
2022/11/11 08:54:11;;;;;;;152.80;95.60;;;;;;;15.26;80.52;103034.50;4882418;28;20091;-81
2022/11/11 08:56:39;;;;;;;142.32;89.38;;;;;;;15.59;80.03;103072.28;4892342;29;20071;-81
2022/11/11 08:59:06;;;;;;;147.25;89.45;;;;;;;15.60;79.98;103067.78;4881651;29;20163;-82
2022/11/11 09:01:33;;;;;;;148.93;91.28;;;;;;;15.10;80.34;103000.81;4879009;29;20091;-82
2022/11/11 09:04:00;;;;;;;145.55;89.28;;;;;;;15.69;79.79;103072.47;4886856;29;20417;-85
2022/11/11 09:06:49;;;;;;;148.10;90.30;;;;;;;15.67;79.53;103060.16;4878887;29;20357;-81
2022/11/11 09:09:16;;;;;;;140.43;88.15;;;;;;;15.65;78.77;103048.72;4873689;29;20052;-81
2022/11/11 09:11:43;;;;;;;134.25;85.55;;;;;;;15.64;78.19;103025.59;4881971;29;20135;-82
2022/11/11 09:14:10;;;;;;;145.00;91.20;;;;;;;15.65;77.98;103028.13;4887663;29;20438;-81
2022/11/11 09:16:37;;;;;;;141.20;89.97;;;;;;;15.92;78.40;103083.38;4893446;29;20166;-81
2022/11/11 09:19:09;;;;;;;144.73;88.80;;;;;;;15.77;78.82;103053.22;4885884;29;20508;-81
2022/11/11 09:21:36;;;;;;;141.65;89.80;;;;;;;15.96;78.59;103074.16;4886134;28;20138;-81
2022/11/11 09:24:06;;;;;;;146.70;87.03;;;;;;;15.89;78.89;103067.53;4884925;29;20052;-81
2022/11/11 09:26:33;;;;;;;141.60;91.15;;;;;;;16.16;78.09;103092.31;4878967;29;20048;-81
2022/11/11 09:29:09;;;;;;;135.80;86.35;;;;;;;15.92;78.56;103068.19;4891819;29;20074;-81
2022/11/11 09:31:36;;;;;;;140.55;86.80;;;;;;;16.07;78.32;103071.56;4891690;29;20047;-83
2022/11/11 09:34:11;;;;;;;137.10;88.97;;;;;;;16.12;77.69;103071.22;4878527;29;20068;-82
2022/11/11 09:36:38;;;;;;;139.48;88.28;;;;;;;15.79;77.50;103013.78;4884775;29;20043;-82
2022/11/11 09:39:05;;;;;;;137.57;87.35;;;;;;;16.32;77.67;103078.66;4887757;29;20052;-82
2022/11/11 09:41:48;;;;;;;143.43;92.18;;;;;;;16.50;77.94;103118.47;4886081;29;20199;-81
2022/11/11 09:44:41;;;;;;;138.65;90.10;;;;;;;16.32;77.25;103086.69;4890025;29;20249;-81
2022/11/11 09:47:13;;;;;;;141.50;84.25;;;;;;;16.53;76.96;103100.34;4881521;29;20394;-82
2022/11/11 09:50:02;;;;;;;136.68;84.25;;;;;;;16.52;76.33;103095.91;4881694;29;20881;-82
2022/11/11 09:52:35;;;;;;;138.25;87.07;;;;;;;16.70;76.22;103114.28;4879706;29;20628;-81
2022/11/11 09:55:30;;;;;;;132.05;87.18;;;;;;;16.74;75.77;103113.94;4884586;29;20957;-82
2022/11/11 09:58:02;;;;;;;129.93;85.45;;;;;;;16.68;75.97;103101.00;4892809;29;20054;-82
2022/11/11 10:00:40;;;;;;;143.98;90.82;;;;;;;16.48;76.54;103072.13;4898388;28;20449;-81
2022/11/11 10:03:16;;;;;;;134.20;83.88;;;;;;;16.77;75.98;103097.63;4886252;29;20090;-80
2022/11/11 10:06:06;;;;;;;130.23;84.13;;;;;;;16.55;75.56;103047.41;4897210;28;20171;-83
2022/11/11 10:08:43;;;;;;;131.90;82.15;;;;;;;16.62;75.11;103034.41;4895497;29;20051;-84
2022/11/11 10:11:31;;;;;;;128.63;82.65;;;;;;;16.87;75.33;103079.03;4927904;28;20529;-78
2022/11/11 10:13:57;;;;;;;134.48;85.88;;;;;;;16.91;75.17;103071.59;4898454;29;20588;-83
2022/11/11 10:17:15;;;;;;;136.60;84.60;;;;;;;17.12;75.16;103080.66;4886037;29;20584;-81
2022/11/11 10:20:04;;;;;;;133.75;88.15;;;;;;;17.26;74.69;103083.13;4838584;28;20343;-80
2022/11/11 10:22:37;;;;;;;137.63;87.30;;;;;;;17.36;75.32;103083.28;4883231;29;20167;-81
2022/11/11 10:25:19;;;;;;;127.10;81.40;;;;;;;17.48;73.34;103055.44;4880072;29;20079;-82
2022/11/11 10:27:53;;;;;;;128.48;81.00;;;;;;;17.46;73.07;103040.44;4877487;29;20063;-83
2022/11/11 10:30:30;;;;;;;125.03;79.72;;;;;;;17.85;71.37;103070.47;4878100;29;20066;-82
2022/11/11 10:33:03;;;;;;;121.32;78.93;;;;;;;18.02;70.94;103082.53;4876619;29;20427;-82
2022/11/11 10:35:32;;;;;;;119.90;76.90;;;;;;;17.81;71.37;103039.44;4879083;29;20251;-80
2022/11/11 10:38:15;;;;;;;121.00;73.80;;;;;;;18.18;70.96;103074.06;4881407;29;20150;-82
2022/11/11 10:40:49;;;;;;;;;;;;;;;18.23;70.57;103080.78;4898455;29;20554;-81
2022/11/11 10:43:29;;;;;;;111.45;74.30;;;;;;;18.31;70.19;103074.75;4896636;29;20790;-82
2022/11/11 10:46:06;;;;;;;111.65;71.65;;;;;;;18.45;69.64;103070.94;4895704;29;20071;-82
2022/11/11 10:48:53;;;;;;;113.25;67.07;;;;;;;18.38;68.36;103030.25;4897510;29;20549;-81
2022/11/11 10:51:22;;;;;;;119.57;75.95;;;;;;;18.58;68.87;103048.22;4901964;29;20051;-82
2022/11/11 10:54:05;;;;;;;112.82;73.38;;;;;;;18.80;68.19;103065.28;4888565;29;20426;-82
2022/11/11 10:56:44;;;;;;;111.63;73.85;;;;;;;18.74;67.32;103038.88;4880846;29;20594;-85
2022/11/11 10:59:23;;;;;;;116.57;76.03;;;;;;;18.72;67.30;103040.84;4890437;29;20071;-79
2022/11/11 11:02:04;;;;;;;109.35;68.78;;;;;;;18.61;68.31;103030.13;4883002;29;20513;-83
2022/11/11 11:04:40;;;;;;;106.05;69.85;;;;;;;18.41;68.18;102992.31;4883721;29;20139;-84
2022/11/11 11:07:12;;;;;;;95.05;60.72;;;;;;;18.57;67.65;103037.63;4879969;29;20508;-83
2022/11/11 11:09:55;;;;;;;95.95;61.42;;;;;;;18.38;68.23;103022.19;4881808;29;20262;-83
2022/11/11 11:13:00;;;;;;;89.10;56.50;;;;;;;18.36;67.95;103024.97;4884608;29;20620;-81
2022/11/11 11:15:32;;;;;;;92.57;60.75;;;;;;;18.35;68.04;103025.13;4874329;29;20155;-82
2022/11/11 11:18:12;;;;;;;91.13;59.70;;;;;;;18.22;68.63;103016.38;4879048;29;20230;-79
2022/11/11 11:20:57;;;;;;;92.20;61.58;;;;;;;17.90;68.39;102964.31;4878509;29;20052;-83
2022/11/11 11:23:38;;;;;;;85.22;57.03;;;;;;;18.13;68.04;103017.97;4880435;29;20048;-82
2022/11/11 11:26:13;;;;;;;79.03;52.75;;;;;;;18.09;68.40;103016.53;4895396;29;20060;-82
2022/11/11 11:29:00;;;;;;;71.72;46.47;;;;;;;18.00;67.24;103001.16;4880153;29;20148;-83
2022/11/11 11:31:38;;;;;;;75.38;48.53;;;;;;;17.64;67.86;102958.34;4880836;29;20194;-80
2022/11/11 11:34:08;;;;;;;83.05;53.25;;;;;;;18.10;67.82;103000.28;4876187;29;20168;-82
2022/11/11 11:36:35;;;;;;;79.05;51.15;;;;;;;18.03;67.72;102993.69;4878071;29;20167;-82
2022/11/11 11:39:01;;;;;;;77.25;49.05;;;;;;;18.12;67.97;103019.81;4874999;29;20056;-82
2022/11/11 11:41:50;;;;;;;68.00;45.28;;;;;;;17.71;66.47;102921.94;4898066;29;20059;-84
2022/11/11 11:44:26;;;;;;;74.90;51.13;;;;;;;18.03;66.74;102974.88;4895358;29;20056;-83
2022/11/11 11:47:20;;;;;;;68.65;46.80;;;;;;;17.72;67.82;102934.44;4899470;29;20051;-83
2022/11/11 11:50:25;;;;;;;70.57;46.88;;;;;;;17.99;66.32;102957.31;4893879;29;20055;-83
2022/11/11 11:53:10;;;;;;;75.38;49.95;;;;;;;18.14;67.31;103017.84;4893117;29;20680;-81
2022/11/11 11:55:52;;;;;;;76.45;51.30;;;;;;;17.56;67.92;102927.75;4890936;29;20571;-82
2022/11/11 11:58:27;;;;;;;;;;;;;;;17.99;68.30;103000.31;4892977;29;20244;-83
2022/11/11 12:01:15;;;;;;;75.70;48.03;;;;;;;18.04;68.23;103008.84;4892563;29;20077;-79
2022/11/11 12:04:04;;;;;;;57.95;40.85;;;;;;;18.01;67.04;102982.25;4903751;28;20063;-82
2022/11/11 12:06:41;;;;;;;61.22;39.90;;;;;;;18.29;66.63;103001.44;4852310;29;20246;-82
2022/11/11 12:09:27;;;;;;;62.00;39.35;;;;;;;18.06;66.30;102953.16;4897498;29;20059;-83
2022/11/11 12:12:02;;;;;;;58.67;38.55;;;;;;;18.45;65.38;102985.72;4889937;29;20687;-80
2022/11/11 12:14:59;;;;;;;64.93;42.22;;;;;;;18.38;65.86;102983.69;4879243;29;20483;-81
2022/11/11 12:18:02;;;;;;;66.60;43.13;;;;;;;17.79;66.34;102901.66;4897526;29;20063;-84
2022/11/11 12:20:41;;;;;;;59.80;41.33;;;;;;;18.31;65.97;102973.44;4872601;29;20051;-83
2022/11/11 12:23:41;;;;;;;52.90;36.63;;;;;;;17.73;65.19;102874.34;4895744;29;20264;-83
2022/11/11 12:26:25;;;;;;;63.15;38.13;;;;;;;17.61;65.20;102853.03;4854504;29;20409;-80
2022/11/11 12:29:04;;;;;;;56.00;36.83;;;;;;;17.82;66.00;102896.94;4899224;29;20055;-83
2022/11/11 12:31:58;;;;;;;63.40;40.50;;;;;;;17.86;66.00;102898.34;4895759;29;20437;-82
2022/11/11 12:34:37;;;;;;;61.65;40.40;;;;;;;18.21;65.97;102975.19;4892334;29;20412;-82
2022/11/11 12:37:30;;;;;;;45.63;30.70;;;;;;;18.17;64.97;102970.19;4901710;29;20494;-82
2022/11/11 12:39:57;;;;;;;38.85;26.50;;;;;;;18.12;64.98;102968.75;4896900;29;20060;-82
2022/11/11 12:42:33;;;;;;;42.53;29.48;;;;;;;18.10;65.51;102957.25;4903394;29;20170;-83